sensor_id;sensor_type;location;lat;lon;timestamp;pressure;altitude;pressure_sealevel;temperature;humidity
34185;BME280;20454;48.100;11.776;2023-04-27T00:00:43;95458.56;;;4.92;96.74
34185;BME280;20454;48.100;11.776;2023-04-27T00:03:09;95455.84;;;4.87;96.95
34185;BME280;20454;48.100;11.776;2023-04-27T00:05:35;95451.75;;;4.80;97.15
34185;BME280;20454;48.100;11.776;2023-04-27T00:08:01;95455.38;;;4.75;97.19
34185;BME280;20454;48.100;11.776;2023-04-27T00:10:27;95453.47;;;4.71;97.41
34185;BME280;20454;48.100;11.776;2023-04-27T00:12:53;95452.69;;;4.65;97.86
34185;BME280;20454;48.100;11.776;2023-04-27T00:15:18;95450.81;;;4.61;97.40
34185;BME280;20454;48.100;11.776;2023-04-27T00:17:44;95454.13;;;4.58;97.37
34185;BME280;20454;48.100;11.776;2023-04-27T00:20:10;95453.59;;;4.56;97.36
34185;BME280;20454;48.100;11.776;2023-04-27T00:22:37;95442.84;;;4.54;97.36
34185;BME280;20454;48.100;11.776;2023-04-27T00:25:04;95448.94;;;4.52;97.76
34185;BME280;20454;48.100;11.776;2023-04-27T00:27:30;95446.75;;;4.48;97.60
34185;BME280;20454;48.100;11.776;2023-04-27T00:29:56;95429.44;;;4.43;96.89
34185;BME280;20454;48.100;11.776;2023-04-27T00:32:22;95440.44;;;4.48;96.65
34185;BME280;20454;48.100;11.776;2023-04-27T00:34:47;95442.66;;;4.46;95.89
34185;BME280;20454;48.100;11.776;2023-04-27T00:37:13;95442.09;;;4.44;95.75
34185;BME280;20454;48.100;11.776;2023-04-27T00:39:39;95444.31;;;4.42;95.91
34185;BME280;20454;48.100;11.776;2023-04-27T00:42:04;95431.66;;;4.41;95.66
34185;BME280;20454;48.100;11.776;2023-04-27T00:44:35;95442.16;;;4.39;95.86
34185;BME280;20454;48.100;11.776;2023-04-27T00:47:01;95434.69;;;4.40;95.97
34185;BME280;20454;48.100;11.776;2023-04-27T00:49:27;95436.66;;;4.39;96.40
34185;BME280;20454;48.100;11.776;2023-04-27T00:51:53;95442.44;;;4.38;96.13
34185;BME280;20454;48.100;11.776;2023-04-27T00:54:20;95439.69;;;4.38;96.22
34185;BME280;20454;48.100;11.776;2023-04-27T00:56:48;95435.81;;;4.39;96.07
34185;BME280;20454;48.100;11.776;2023-04-27T00:59:14;95439.09;;;4.41;96.06
34185;BME280;20454;48.100;11.776;2023-04-27T01:01:40;95437.72;;;4.38;96.65
34185;BME280;20454;48.100;11.776;2023-04-27T01:04:06;95434.16;;;4.38;96.84
34185;BME280;20454;48.100;11.776;2023-04-27T01:06:31;95439.69;;;4.38;96.98
34185;BME280;20454;48.100;11.776;2023-04-27T01:08:57;95442.44;;;4.38;97.32
34185;BME280;20454;48.100;11.776;2023-04-27T01:11:23;95433.59;;;4.41;97.64
34185;BME280;20454;48.100;11.776;2023-04-27T01:13:49;95440.72;;;4.42;98.22
34185;BME280;20454;48.100;11.776;2023-04-27T01:16:18;95443.22;;;4.43;98.11
34185;BME280;20454;48.100;11.776;2023-04-27T01:18:44;95437.44;;;4.45;98.56
34185;BME280;20454;48.100;11.776;2023-04-27T01:21:10;95440.44;;;4.48;98.72
34185;BME280;20454;48.100;11.776;2023-04-27T01:23:36;95433.81;;;4.49;98.40
34185;BME280;20454;48.100;11.776;2023-04-27T01:26:02;95446.75;;;4.48;98.98
34185;BME280;20454;48.100;11.776;2023-04-27T01:28:27;95440.44;;;4.48;98.38
34185;BME280;20454;48.100;11.776;2023-04-27T01:30:53;95445.91;;;4.53;98.76
34185;BME280;20454;48.100;11.776;2023-04-27T01:33:19;95445.34;;;4.51;98.65
34185;BME280;20454;48.100;11.776;2023-04-27T01:35:45;95443.72;;;4.50;98.85
34185;BME280;20454;48.100;11.776;2023-04-27T01:38:11;95448.41;;;4.50;98.72
34185;BME280;20454;48.100;11.776;2023-04-27T01:40:37;95443.72;;;4.50;98.95
34185;BME280;20454;48.100;11.776;2023-04-27T01:43:03;95440.44;;;4.48;99.18
34185;BME280;20454;48.100;11.776;2023-04-27T01:45:28;95435.44;;;4.50;98.83
34185;BME280;20454;48.100;11.776;2023-04-27T01:47:54;95444.00;;;4.48;98.97
34185;BME280;20454;48.100;11.776;2023-04-27T01:50:20;95437.41;;;4.50;99.19
34185;BME280;20454;48.100;11.776;2023-04-27T01:52:46;95445.91;;;4.53;98.96
34185;BME280;20454;48.100;11.776;2023-04-27T01:55:12;95448.94;;;4.52;98.99
34185;BME280;20454;48.100;11.776;2023-04-27T01:57:37;95453.34;;;4.53;98.63
34185;BME280;20454;48.100;11.776;2023-04-27T04:01:50;95495.00;;;3.83;100.00
34185;BME280;20454;48.100;11.776;2023-04-27T04:04:16;95497.47;;;3.84;100.00
34185;BME280;20454;48.100;11.776;2023-04-27T04:06:42;95500.75;;;3.86;100.00
34185;BME280;20454;48.100;11.776;2023-04-27T04:09:07;95501.03;;;3.90;100.00
34185;BME280;20454;48.100;11.776;2023-04-27T04:11:33;95510.09;;;3.90;100.00
34185;BME280;20454;48.100;11.776;2023-04-27T04:13:59;95512.03;;;3.95;100.00
34185;BME280;20454;48.100;11.776;2023-04-27T04:16:24;95524.09;;;3.99;100.00
34185;BME280;20454;48.100;11.776;2023-04-27T04:18:50;95520.50;;;4.03;100.00
34185;BME280;20454;48.100;11.776;2023-04-27T04:21:16;95518.00;;;4.07;100.00
34185;BME280;20454;48.100;11.776;2023-04-27T04:23:41;95518.28;;;4.10;100.00
34185;BME280;20454;48.100;11.776;2023-04-27T04:26:07;95524.59;;;4.16;100.00
34185;BME280;20454;48.100;11.776;2023-04-27T04:28:34;95531.69;;;4.22;100.00
34185;BME280;20454;48.100;11.776;2023-04-27T04:31:00;95530.03;;;4.26;100.00
34185;BME280;20454;48.100;11.776;2023-04-27T04:33:26;95536.06;;;4.33;100.00
34185;BME280;20454;48.100;11.776;2023-04-27T04:35:52;95541.84;;;4.36;100.00
34185;BME280;20454;48.100;11.776;2023-04-27T06:01:13;95569.47;;;7.34;88.99
34185;BME280;20454;48.100;11.776;2023-04-27T06:03:39;95565.50;;;7.40;88.60
34185;BME280;20454;48.100;11.776;2023-04-27T06:06:04;95565.03;;;7.52;88.40
34185;BME280;20454;48.100;11.776;2023-04-27T06:08:30;95567.63;;;7.62;89.31
34185;BME280;20454;48.100;11.776;2023-04-27T06:10:56;95566.03;;;7.74;88.67
34185;BME280;20454;48.100;11.776;2023-04-27T06:13:21;95562.78;;;7.86;89.06
34185;BME280;20454;48.100;11.776;2023-04-27T06:15:47;95561.16;;;7.98;88.66
34185;BME280;20454;48.100;11.776;2023-04-27T06:18:13;95558.75;;;8.10;88.20
34185;BME280;20454;48.100;11.776;2023-04-27T06:20:39;95569.56;;;8.25;88.08
34185;BME280;20454;48.100;11.776;2023-04-27T06:23:04;95562.09;;;8.39;87.90
34185;BME280;20454;48.100;11.776;2023-04-27T06:25:30;95567.63;;;8.53;86.87
34185;BME280;20454;48.100;11.776;2023-04-27T06:27:56;95575.44;;;8.64;86.51
34185;BME280;20454;48.100;11.776;2023-04-27T06:30:23;95562.19;;;8.75;86.03
34185;BME280;20454;48.100;11.776;2023-04-27T06:32:50;95574.31;;;8.92;84.80
34185;BME280;20454;48.100;11.776;2023-04-27T06:35:16;95573.97;;;9.07;84.38
34185;BME280;20454;48.100;11.776;2023-04-27T06:37:42;95572.28;;;9.20;82.81
34185;BME280;20454;48.100;11.776;2023-04-27T06:40:09;95580.06;;;9.31;82.99
34185;BME280;20454;48.100;11.776;2023-04-27T06:42:35;95566.56;;;9.38;80.68
34185;BME280;20454;48.100;11.776;2023-04-27T06:45:01;95577.75;;;9.47;80.26
34185;BME280;20454;48.100;11.776;2023-04-27T06:47:26;95579.50;;;9.56;80.71
34185;BME280;20454;48.100;11.776;2023-04-27T06:49:52;95576.16;;;9.67;79.17
34185;BME280;20454;48.100;11.776;2023-04-27T06:52:18;95572.69;;;9.84;78.20
34185;BME280;20454;48.100;11.776;2023-04-27T06:54:43;95570.28;;;9.91;77.44
34185;BME280;20454;48.100;11.776;2023-04-27T06:57:09;95574.44;;;10.02;77.11
34185;BME280;20454;48.100;11.776;2023-04-27T06:59:35;95571.94;;;10.14;75.59
34185;BME280;20454;48.100;11.776;2023-04-27T07:14:58;95576.81;;;10.78;75.20
34185;BME280;20454;48.100;11.776;2023-04-27T07:17:23;95579.81;;;10.90;74.14
34185;BME280;20454;48.100;11.776;2023-04-27T07:19:49;95569.88;;;10.97;72.68
34185;BME280;20454;48.100;11.776;2023-04-27T07:22:15;95563.38;;;11.10;73.36
34185;BME280;20454;48.100;11.776;2023-04-27T07:24:40;95576.00;;;11.25;71.90
34185;BME280;20454;48.100;11.776;2023-04-27T07:27:06;95565.88;;;11.37;71.57
34185;BME280;20454;48.100;11.776;2023-04-27T07:29:32;95564.72;;;11.47;71.64
34185;BME280;20454;48.100;11.776;2023-04-27T07:31:58;95562.94;;;11.51;71.23
34185;BME280;20454;48.100;11.776;2023-04-27T07:34:23;95565.94;;;11.63;71.58
34185;BME280;20454;48.100;11.776;2023-04-27T07:36:50;95569.53;;;11.80;70.64
34185;BME280;20454;48.100;11.776;2023-04-27T07:39:18;95561.34;;;11.84;69.35
34185;BME280;20454;48.100;11.776;2023-04-27T07:41:45;95569.88;;;11.96;70.79
34185;BME280;20454;48.100;11.776;2023-04-27T07:44:10;95563.09;;;12.05;67.90
34185;BME280;20454;48.100;11.776;2023-04-27T07:46:36;95569.66;;;12.01;66.48
34185;BME280;20454;48.100;11.776;2023-04-27T07:49:03;95567.72;;;12.10;67.50
34185;BME280;20454;48.100;11.776;2023-04-27T07:51:28;95574.25;;;12.22;66.80
34185;BME280;20454;48.100;11.776;2023-04-27T07:53:54;95564.38;;;12.33;66.38
34185;BME280;20454;48.100;11.776;2023-04-27T07:56:20;95569.94;;;12.42;65.52
34185;BME280;20454;48.100;11.776;2023-04-27T07:58:46;95573.81;;;12.58;64.29
34185;BME280;20454;48.100;11.776;2023-04-27T08:01:11;95569.53;;;12.60;61.96
34185;BME280;20454;48.100;11.776;2023-04-27T08:03:37;95565.59;;;12.61;61.64
34185;BME280;20454;48.100;11.776;2023-04-27T08:06:03;95570.50;;;12.73;61.84
34185;BME280;20454;48.100;11.776;2023-04-27T08:08:29;95576.25;;;12.76;62.17
34185;BME280;20454;48.100;11.776;2023-04-27T08:10:55;95576.41;;;12.80;61.59
34185;BME280;20454;48.100;11.776;2023-04-27T08:13:20;95582.31;;;12.78;60.54
34185;BME280;20454;48.100;11.776;2023-04-27T08:15:46;95579.72;;;12.65;60.51
34185;BME280;20454;48.100;11.776;2023-04-27T08:18:12;95573.31;;;12.64;60.55
34185;BME280;20454;48.100;11.776;2023-04-27T08:20:37;95577.56;;;12.70;60.77
34185;BME280;20454;48.100;11.776;2023-04-27T08:23:03;95574.91;;;12.82;61.49
34185;BME280;20454;48.100;11.776;2023-04-27T08:25:28;95576.50;;;13.00;60.78
34185;BME280;20454;48.100;11.776;2023-04-27T08:27:54;95577.31;;;13.01;59.75
34185;BME280;20454;48.100;11.776;2023-04-27T08:30:20;95572.38;;;12.98;59.98
34185;BME280;20454;48.100;11.776;2023-04-27T08:32:46;95580.69;;;13.15;60.13
34185;BME280;20454;48.100;11.776;2023-04-27T08:35:12;95585.84;;;13.33;59.73
34185;BME280;20454;48.100;11.776;2023-04-27T08:37:39;95579.47;;;13.53;59.75
34185;BME280;20454;48.100;11.776;2023-04-27T08:40:06;95577.38;;;13.71;58.39
34185;BME280;20454;48.100;11.776;2023-04-27T08:42:32;95581.41;;;13.82;57.79
34185;BME280;20454;48.100;11.776;2023-04-27T08:44:58;95579.09;;;13.84;56.12
34185;BME280;20454;48.100;11.776;2023-04-27T08:47:24;95585.09;;;13.74;55.47
34185;BME280;20454;48.100;11.776;2023-04-27T08:49:49;95580.53;;;13.90;57.58
34185;BME280;20454;48.100;11.776;2023-04-27T08:52:15;95577.97;;;14.17;56.59
34185;BME280;20454;48.100;11.776;2023-04-27T08:54:41;95572.25;;;14.34;54.49
34185;BME280;20454;48.100;11.776;2023-04-27T08:57:11;95575.81;;;14.43;53.26
34185;BME280;20454;48.100;11.776;2023-04-27T08:59:41;95585.63;;;14.29;52.77
34185;BME280;20454;48.100;11.776;2023-04-27T09:02:18;95577.44;;;14.24;52.55
34185;BME280;20454;48.100;11.776;2023-04-27T09:04:44;95566.63;;;14.22;53.38
34185;BME280;20454;48.100;11.776;2023-04-27T09:07:12;95572.28;;;14.46;54.05
34185;BME280;20454;48.100;11.776;2023-04-27T09:09:38;95560.47;;;14.73;55.41
34185;BME280;20454;48.100;11.776;2023-04-27T09:14:40;95558.13;;;15.55;52.80
34185;BME280;20454;48.100;11.776;2023-04-27T09:17:06;95554.53;;;15.82;52.53
34185;BME280;20454;48.100;11.776;2023-04-27T09:19:32;95551.69;;;16.06;49.93
34185;BME280;20454;48.100;11.776;2023-04-27T09:22:08;95540.03;;;16.20;49.29
34185;BME280;20454;48.100;11.776;2023-04-27T09:24:35;95549.47;;;16.39;49.42
34185;BME280;20454;48.100;11.776;2023-04-27T09:27:01;95556.88;;;16.59;45.86
34185;BME280;20454;48.100;11.776;2023-04-27T09:29:32;95544.75;;;16.71;47.91
34185;BME280;20454;48.100;11.776;2023-04-27T09:31:57;95546.69;;;16.98;47.75
34185;BME280;20454;48.100;11.776;2023-04-27T09:34:23;95548.28;;;16.68;45.83
34185;BME280;20454;48.100;11.776;2023-04-27T09:36:48;95543.41;;;16.80;46.37
34185;BME280;20454;48.100;11.776;2023-04-27T09:39:15;95543.19;;;16.58;43.43
34185;BME280;20454;48.100;11.776;2023-04-27T09:41:43;95538.00;;;16.87;46.28
34185;BME280;20454;48.100;11.776;2023-04-27T09:44:10;95539.25;;;17.36;45.71
34185;BME280;20454;48.100;11.776;2023-04-27T09:46:37;95525.94;;;17.49;46.77
34185;BME280;20454;48.100;11.776;2023-04-27T09:49:03;95515.28;;;17.58;43.00
34185;BME280;20454;48.100;11.776;2023-04-27T09:51:30;95519.94;;;17.50;40.74
34185;BME280;20454;48.100;11.776;2023-04-27T09:53:57;95518.59;;;16.98;40.99
34185;BME280;20454;48.100;11.776;2023-04-27T09:56:52;95522.94;;;16.95;43.02
34185;BME280;20454;48.100;11.776;2023-04-27T10:02:02;95521.81;;;16.69;40.89
34185;BME280;20454;48.100;11.776;2023-04-27T10:07:34;95515.81;;;16.70;40.09
34185;BME280;20454;48.100;11.776;2023-04-27T10:10:01;95518.13;;;16.80;41.73
34185;BME280;20454;48.100;11.776;2023-04-27T10:12:36;95512.41;;;17.23;42.45
34185;BME280;20454;48.100;11.776;2023-04-27T10:17:37;95507.78;;;17.46;42.08
34185;BME280;20454;48.100;11.776;2023-04-27T10:20:04;95497.22;;;17.59;41.05
34185;BME280;20454;48.100;11.776;2023-04-27T10:22:44;95502.84;;;17.93;42.02
34185;BME280;20454;48.100;11.776;2023-04-27T10:30:17;95496.69;;;18.26;41.94
34185;BME280;20454;48.100;11.776;2023-04-27T10:32:50;95497.72;;;18.33;42.01
34185;BME280;20454;48.100;11.776;2023-04-27T10:35:17;95487.09;;;18.46;43.10
34185;BME280;20454;48.100;11.776;2023-04-27T10:37:43;95491.22;;;18.71;41.38
34185;BME280;20454;48.100;11.776;2023-04-27T10:40:10;95485.38;;;18.60;42.06
34185;BME280;20454;48.100;11.776;2023-04-27T10:42:40;95477.06;;;18.29;41.18
34185;BME280;20454;48.100;11.776;2023-04-27T10:45:07;95490.34;;;18.10;43.36
34185;BME280;20454;48.100;11.776;2023-04-27T10:47:43;95501.56;;;17.91;44.80
34185;BME280;20454;48.100;11.776;2023-04-27T10:50:11;95493.41;;;17.86;44.57
34185;BME280;20454;48.100;11.776;2023-04-27T10:52:43;95498.56;;;18.37;43.03
34185;BME280;20454;48.100;11.776;2023-04-27T10:55:15;95481.88;;;19.12;43.95
34185;BME280;20454;48.100;11.776;2023-04-27T10:57:52;95475.78;;;19.81;40.30
34185;BME280;20454;48.100;11.776;2023-04-27T11:00:30;95476.31;;;20.52;40.40
34185;BME280;20454;48.100;11.776;2023-04-27T11:03:09;95473.38;;;21.11;38.41
34185;BME280;20454;48.100;11.776;2023-04-27T11:05:36;95472.44;;;21.94;36.64
34185;BME280;20454;48.100;11.776;2023-04-27T11:08:09;95460.91;;;22.27;33.35
34185;BME280;20454;48.100;11.776;2023-04-27T11:10:49;95468.41;;;22.73;36.37
34185;BME280;20454;48.100;11.776;2023-04-27T11:13:20;95454.34;;;23.47;35.16
34185;BME280;20454;48.100;11.776;2023-04-27T11:15:50;95460.00;;;24.06;33.30
34185;BME280;20454;48.100;11.776;2023-04-27T11:18:17;95466.13;;;23.52;32.97
34185;BME280;20454;48.100;11.776;2023-04-27T11:20:50;95470.50;;;23.04;34.21
34185;BME280;20454;48.100;11.776;2023-04-27T11:23:27;95469.59;;;22.69;35.31
34185;BME280;20454;48.100;11.776;2023-04-27T11:25:54;95476.56;;;22.03;35.64
34185;BME280;20454;48.100;11.776;2023-04-27T11:28:23;95479.97;;;21.25;36.49
34185;BME280;20454;48.100;11.776;2023-04-27T11:30:58;95478.66;;;20.43;39.22
34185;BME280;20454;48.100;11.776;2023-04-27T11:33:25;95481.47;;;19.84;39.46
34185;BME280;20454;48.100;11.776;2023-04-27T11:35:51;95493.94;;;19.31;40.73
34185;BME280;20454;48.100;11.776;2023-04-27T11:38:17;95481.59;;;18.94;40.64
34185;BME280;20454;48.100;11.776;2023-04-27T11:40:45;95482.81;;;18.74;40.85
34185;BME280;20454;48.100;11.776;2023-04-27T11:43:12;95479.72;;;18.60;42.69
34185;BME280;20454;48.100;11.776;2023-04-27T11:45:42;95485.91;;;18.47;43.44
34185;BME280;20454;48.100;11.776;2023-04-27T11:48:14;95493.16;;;18.29;43.22
34185;BME280;20454;48.100;11.776;2023-04-27T11:50:40;95495.06;;;18.06;43.19
34185;BME280;20454;48.100;11.776;2023-04-27T11:53:09;95495.34;;;17.82;42.43
34185;BME280;20454;48.100;11.776;2023-04-27T11:55:35;95494.88;;;17.61;43.85
34185;BME280;20454;48.100;11.776;2023-04-27T11:58:01;95508.31;;;17.52;42.63
34185;BME280;20454;48.100;11.776;2023-04-27T12:00:27;95501.19;;;17.39;44.00
34185;BME280;20454;48.100;11.776;2023-04-27T12:02:53;95503.88;;;17.35;45.43
34185;BME280;20454;48.100;11.776;2023-04-27T12:05:18;95492.59;;;17.51;44.44
34185;BME280;20454;48.100;11.776;2023-04-27T12:07:44;95498.00;;;18.47;43.90
34185;BME280;20454;48.100;11.776;2023-04-27T12:10:10;95491.34;;;19.00;40.20
34185;BME280;20454;48.100;11.776;2023-04-27T12:12:36;95480.69;;;19.35;39.12
34185;BME280;20454;48.100;11.776;2023-04-27T12:15:02;95489.41;;;20.05;40.05
34185;BME280;20454;48.100;11.776;2023-04-27T12:17:27;95483.00;;;20.70;37.57
34185;BME280;20454;48.100;11.776;2023-04-27T12:19:54;95485.72;;;20.59;36.37
34185;BME280;20454;48.100;11.776;2023-04-27T12:22:19;95490.47;;;19.93;36.87
34185;BME280;20454;48.100;11.776;2023-04-27T12:24:45;95495.41;;;19.48;38.55
34185;BME280;20454;48.100;11.776;2023-04-27T12:27:11;95500.06;;;18.92;38.52
34185;BME280;20454;48.100;11.776;2023-04-27T12:29:37;95501.47;;;18.41;39.00
34185;BME280;20454;48.100;11.776;2023-04-27T12:32:03;95508.78;;;18.07;41.19
34185;BME280;20454;48.100;11.776;2023-04-27T12:34:29;95503.13;;;17.88;40.34
34185;BME280;20454;48.100;11.776;2023-04-27T12:36:55;95502.84;;;17.59;41.35
34185;BME280;20454;48.100;11.776;2023-04-27T12:39:22;95502.16;;;17.46;42.16
34185;BME280;20454;48.100;11.776;2023-04-27T12:41:50;95512.53;;;17.42;41.34
34185;BME280;20454;48.100;11.776;2023-04-27T12:44:17;95506.88;;;17.27;42.71
34185;BME280;20454;48.100;11.776;2023-04-27T12:46:44;95512.16;;;17.28;42.76
34185;BME280;20454;48.100;11.776;2023-04-27T12:49:10;95493.25;;;17.29;44.84
34185;BME280;20454;48.100;11.776;2023-04-27T12:51:39;95502.22;;;17.34;44.23
34185;BME280;20454;48.100;11.776;2023-04-27T12:54:05;95506.03;;;17.26;43.86
34185;BME280;20454;48.100;11.776;2023-04-27T12:56:32;95514.66;;;17.33;44.08
34185;BME280;20454;48.100;11.776;2023-04-27T12:58:57;95515.41;;;17.15;42.77
34185;BME280;20454;48.100;11.776;2023-04-27T13:01:24;95506.34;;;17.06;45.28
34185;BME280;20454;48.100;11.776;2023-04-27T13:03:54;95508.41;;;17.09;47.08
34185;BME280;20454;48.100;11.776;2023-04-27T13:06:20;95496.63;;;17.19;45.72
34185;BME280;20454;48.100;11.776;2023-04-27T13:08:49;95490.53;;;17.32;46.34
34185;BME280;20454;48.100;11.776;2023-04-27T13:11:16;95492.81;;;17.42;46.18
34185;BME280;20454;48.100;11.776;2023-04-27T13:13:41;95491.25;;;17.45;46.31
34185;BME280;20454;48.100;11.776;2023-04-27T13:16:07;95497.44;;;17.35;45.65
34185;BME280;20454;48.100;11.776;2023-04-27T13:18:33;95496.50;;;17.31;45.22
34185;BME280;20454;48.100;11.776;2023-04-27T13:20:59;95494.09;;;17.29;45.50
34185;BME280;20454;48.100;11.776;2023-04-27T13:23:25;95485.47;;;17.22;44.49
34185;BME280;20454;48.100;11.776;2023-04-27T13:25:51;95484.47;;;17.15;43.76
34185;BME280;20454;48.100;11.776;2023-04-27T13:28:17;95483.03;;;17.05;43.97
34185;BME280;20454;48.100;11.776;2023-04-27T13:30:43;95493.09;;;17.06;44.74
34185;BME280;20454;48.100;11.776;2023-04-27T13:33:10;95485.75;;;16.86;44.26
34185;BME280;20454;48.100;11.776;2023-04-27T13:35:39;95485.09;;;16.77;45.41
34185;BME280;20454;48.100;11.776;2023-04-27T13:38:04;95490.91;;;16.69;47.29
34185;BME280;20454;48.100;11.776;2023-04-27T13:40:30;95492.34;;;16.47;45.42
34185;BME280;20454;48.100;11.776;2023-04-27T13:42:56;95484.19;;;16.30;45.59
34185;BME280;20454;48.100;11.776;2023-04-27T13:45:21;95482.00;;;16.24;45.28
34185;BME280;20454;48.100;11.776;2023-04-27T13:47:47;95482.56;;;16.29;45.59
34185;BME280;20454;48.100;11.776;2023-04-27T13:50:12;95487.09;;;16.34;45.69
34185;BME280;20454;48.100;11.776;2023-04-27T13:52:39;95483.59;;;16.37;47.80
34185;BME280;20454;48.100;11.776;2023-04-27T13:55:06;95483.28;;;16.54;45.79
34185;BME280;20454;48.100;11.776;2023-04-27T13:57:32;95481.22;;;16.66;45.74
34185;BME280;20454;48.100;11.776;2023-04-27T13:59:58;95486.38;;;16.80;46.26
34185;BME280;20454;48.100;11.776;2023-04-27T14:02:28;95484.91;;;16.70;43.63
34185;BME280;20454;48.100;11.776;2023-04-27T14:04:54;95479.56;;;16.65;44.70
34185;BME280;20454;48.100;11.776;2023-04-27T14:07:20;95473.06;;;16.61;45.48
34185;BME280;20454;48.100;11.776;2023-04-27T14:09:45;95477.41;;;16.59;46.35
34185;BME280;20454;48.100;11.776;2023-04-27T14:12:11;95462.25;;;16.48;46.66
34185;BME280;20454;48.100;11.776;2023-04-27T14:14:37;95470.94;;;16.43;45.85
34185;BME280;20454;48.100;11.776;2023-04-27T14:17:03;95467.00;;;16.32;47.82
34185;BME280;20454;48.100;11.776;2023-04-27T14:19:30;95469.25;;;16.26;49.20
34185;BME280;20454;48.100;11.776;2023-04-27T14:21:56;95463.78;;;16.18;47.18
34185;BME280;20454;48.100;11.776;2023-04-27T14:24:22;95469.84;;;16.20;46.33
34185;BME280;20454;48.100;11.776;2023-04-27T14:26:48;95467.44;;;16.18;47.51
34185;BME280;20454;48.100;11.776;2023-04-27T14:29:16;95467.97;;;16.24;48.72
34185;BME280;20454;48.100;11.776;2023-04-27T14:31:42;95457.91;;;16.23;49.52
34185;BME280;20454;48.100;11.776;2023-04-27T14:34:08;95464.41;;;16.11;47.43
34185;BME280;20454;48.100;11.776;2023-04-27T14:36:34;95464.31;;;16.08;47.38
34185;BME280;20454;48.100;11.776;2023-04-27T14:39:00;95456.94;;;16.03;47.22
34185;BME280;20454;48.100;11.776;2023-04-27T14:41:26;95457.97;;;16.11;47.74
34185;BME280;20454;48.100;11.776;2023-04-27T14:43:52;95460.47;;;16.28;48.88
34185;BME280;20454;48.100;11.776;2023-04-27T14:46:18;95458.19;;;16.45;46.71
34185;BME280;20454;48.100;11.776;2023-04-27T14:48:44;95462.81;;;16.69;48.17
34185;BME280;20454;48.100;11.776;2023-04-27T14:51:11;95459.47;;;16.94;46.04
34185;BME280;20454;48.100;11.776;2023-04-27T14:53:36;95456.53;;;17.06;46.17
34185;BME280;20454;48.100;11.776;2023-04-27T14:56:02;95445.94;;;17.15;47.64
34185;BME280;20454;48.100;11.776;2023-04-27T14:58:28;95452.25;;;17.28;49.05
34185;BME280;20454;48.100;11.776;2023-04-27T15:00:57;95447.16;;;17.33;49.11
34185;BME280;20454;48.100;11.776;2023-04-27T15:03:23;95446.91;;;17.38;47.36
34185;BME280;20454;48.100;11.776;2023-04-27T15:05:49;95450.34;;;17.32;46.37
34185;BME280;20454;48.100;11.776;2023-04-27T15:08:16;95449.97;;;17.33;47.28
34185;BME280;20454;48.100;11.776;2023-04-27T15:10:42;95450.91;;;17.37;47.56
34185;BME280;20454;48.100;11.776;2023-04-27T15:13:07;95446.25;;;17.45;46.85
34185;BME280;20454;48.100;11.776;2023-04-27T15:15:33;95447.44;;;17.44;46.24
34185;BME280;20454;48.100;11.776;2023-04-27T15:17:59;95440.81;;;17.36;46.67
34185;BME280;20454;48.100;11.776;2023-04-27T16:01:52;95436.22;;;17.13;47.88
34185;BME280;20454;48.100;11.776;2023-04-27T16:04:18;95430.78;;;17.04;47.76
34185;BME280;20454;48.100;11.776;2023-04-27T16:06:44;95439.59;;;17.03;48.32
34185;BME280;20454;48.100;11.776;2023-04-27T16:09:10;95437.16;;;17.01;47.31
34185;BME280;20454;48.100;11.776;2023-04-27T16:11:37;95439.88;;;16.98;46.94
34185;BME280;20454;48.100;11.776;2023-04-27T16:14:03;95442.97;;;16.93;47.27
34185;BME280;20454;48.100;11.776;2023-04-27T16:16:29;95437.06;;;16.82;47.88
34185;BME280;20454;48.100;11.776;2023-04-27T16:18:56;95446.41;;;16.71;49.68
34185;BME280;20454;48.100;11.776;2023-04-27T16:21:22;95446.41;;;16.55;49.63
34185;BME280;20454;48.100;11.776;2023-04-27T16:23:47;95448.56;;;16.46;50.92
34185;BME280;20454;48.100;11.776;2023-04-27T16:26:13;95445.09;;;16.37;50.53
34185;BME280;20454;48.100;11.776;2023-04-27T16:28:39;95439.84;;;16.36;49.90
34185;BME280;20454;48.100;11.776;2023-04-27T16:31:04;95428.31;;;16.25;49.25
34185;BME280;20454;48.100;11.776;2023-04-27T16:33:30;95431.81;;;16.22;49.14
34185;BME280;20454;48.100;11.776;2023-04-27T16:35:56;95433.53;;;16.11;50.60
34185;BME280;20454;48.100;11.776;2023-04-27T16:38:21;95435.31;;;16.04;48.34
34185;BME280;20454;48.100;11.776;2023-04-27T16:40:47;95435.22;;;16.00;50.79
34185;BME280;20454;48.100;11.776;2023-04-27T16:43:13;95442.72;;;15.96;49.60
34185;BME280;20454;48.100;11.776;2023-04-27T16:45:38;95440.19;;;15.91;51.76
34185;BME280;20454;48.100;11.776;2023-04-27T16:48:06;95440.44;;;15.86;51.30
34185;BME280;20454;48.100;11.776;2023-04-27T16:50:33;95429.94;;;15.83;51.78
34185;BME280;20454;48.100;11.776;2023-04-27T16:53:05;95433.00;;;15.78;52.40
34185;BME280;20454;48.100;11.776;2023-04-27T16:55:32;95431.25;;;15.74;53.22
34185;BME280;20454;48.100;11.776;2023-04-27T16:57:58;95423.91;;;15.69;53.08
34185;BME280;20454;48.100;11.776;2023-04-27T17:00:23;95433.44;;;15.80;51.93
34185;BME280;20454;48.100;11.776;2023-04-27T17:02:49;95433.59;;;15.99;52.39
34185;BME280;20454;48.100;11.776;2023-04-27T17:05:15;95431.53;;;16.12;52.57
34185;BME280;20454;48.100;11.776;2023-04-27T17:07:41;95430.53;;;16.20;51.22
34185;BME280;20454;48.100;11.776;2023-04-27T17:10:07;95421.22;;;16.16;48.96
34185;BME280;20454;48.100;11.776;2023-04-27T17:12:34;95413.50;;;15.97;49.37
34185;BME280;20454;48.100;11.776;2023-04-27T17:35:44;95428.13;;;14.52;57.05
34185;BME280;20454;48.100;11.776;2023-04-27T17:38:12;95428.47;;;14.39;57.61
34185;BME280;20454;48.100;11.776;2023-04-27T17:40:38;95428.91;;;14.29;58.03
34185;BME280;20454;48.100;11.776;2023-04-27T17:43:04;95428.53;;;14.18;59.46
34185;BME280;20454;48.100;11.776;2023-04-27T17:45:30;95425.69;;;14.06;59.46